メインページ
METAR-TAF:

METAR-TAF

空港 :

シェレメーチエヴォ国際空港

モスクワ-シェレメーチエヴォ, ロシア

緯度: 55-58N, 経度: 037-25E, 海抜: 190m

現時点の気象観測

当レポートは22分前の03:30(UTC)に作成
西の風 10kt
気温 -1°C
湿度 86%
気圧 1005 hPa
視程10km以上
1,500メートル以下は雲なし、積乱雲なし

METAR: UUEE 250330Z 27005MPS CAVOK M01/M03 Q1005 R24L/510251 R24C/510245 NOSIG

時間: 06:52 (03:52 UTC)

予報

当レポートは1時間58分前の01:54(UTC)に作成
予報は25日の 03時(UTC)から 26日の 03時(UTC)まで有効
西の風 10kt、最大21ktの突風を伴う
視程: 6000m
高度1100ftの雲は散在している
25日の 03時(UTC)から 25日の 06時(UTC)まで一時的に
視程: 3100m
高度400ftの千切れ雲あり
高度1100ftの雲は散在している, 積乱雲.
弱いにわか雪, 靄
25日の 14時(UTC)から 25日の 16時(UTC)まで徐々に
南西の風 10kt

TAF: UUEE 250154Z 2503/2603 28005G11MPS 6000 SCT011 TX05/2512Z TNM02/2503Z TEMPO 2503/2506 3100 -SHSN BR BKN004 SCT011CB BECMG 2514/2516 22005MPS

4,000以上の空港の気象観測と天気予報(METAR報とTAF報)

利用可能な観測所は地図上に黄色い丸と赤い丸で示す。

丸の上にカーソルを重ねると観測所名を参照できる。

次にクリックすると気象観測と天気予報を参照できる。

マップの切り替え:黒色「×」印の緑ボタンをクリックして拡大、「-」印の緑ボタンをクリックして縮小、緑色の三角印をクリックして隣りの地図に切り替え


METAR-TAF: